sensor_id;sensor_type;location;lat;lon;timestamp;P1;durP1;ratioP1;P2;durP2;ratioP2
14876;SDS011;69691;48.172;17.070;2023-07-08T00:00:52;8.25;;;4.82;;
14876;SDS011;69691;48.172;17.070;2023-07-08T00:03:19;7.57;;;5.10;;
14876;SDS011;69691;48.172;17.070;2023-07-08T00:05:46;10.32;;;5.40;;
14876;SDS011;69691;48.172;17.070;2023-07-08T00:08:13;6.60;;;4.88;;
14876;SDS011;69691;48.172;17.070;2023-07-08T00:10:40;6.18;;;5.07;;
14876;SDS011;69691;48.172;17.070;2023-07-08T00:13:07;9.98;;;6.40;;
14876;SDS011;69691;48.172;17.070;2023-07-08T00:15:34;10.15;;;4.88;;
14876;SDS011;69691;48.172;17.070;2023-07-08T00:18:01;11.18;;;5.10;;
14876;SDS011;69691;48.172;17.070;2023-07-08T00:20:38;7.45;;;5.00;;
14876;SDS011;69691;48.172;17.070;2023-07-08T00:23:08;8.63;;;5.45;;
14876;SDS011;69691;48.172;17.070;2023-07-08T00:25:34;9.43;;;4.75;;
14876;SDS011;69691;48.172;17.070;2023-07-08T00:28:01;7.30;;;5.03;;
14876;SDS011;69691;48.172;17.070;2023-07-08T00:30:28;10.00;;;5.45;;
14876;SDS011;69691;48.172;17.070;2023-07-08T00:32:56;12.13;;;5.32;;
14876;SDS011;69691;48.172;17.070;2023-07-08T00:35:33;11.45;;;4.97;;
14876;SDS011;69691;48.172;17.070;2023-07-08T00:38:14;8.55;;;4.80;;
14876;SDS011;69691;48.172;17.070;2023-07-08T00:40:50;7.93;;;5.22;;
14876;SDS011;69691;48.172;17.070;2023-07-08T00:43:24;6.25;;;5.30;;
14876;SDS011;69691;48.172;17.070;2023-07-08T00:51:34;8.10;;;5.60;;
14876;SDS011;69691;48.172;17.070;2023-07-08T00:54:10;6.13;;;4.95;;
14876;SDS011;69691;48.172;17.070;2023-07-08T00:56:40;8.80;;;5.53;;
14876;SDS011;69691;48.172;17.070;2023-07-08T00:59:36;8.85;;;5.50;;
14876;SDS011;69691;48.172;17.070;2023-07-08T01:02:10;10.48;;;5.00;;
14876;SDS011;69691;48.172;17.070;2023-07-08T01:07:18;9.02;;;4.65;;
14876;SDS011;69691;48.172;17.070;2023-07-08T01:09:47;14.98;;;5.25;;
14876;SDS011;69691;48.172;17.070;2023-07-08T01:12:21;8.27;;;5.40;;
14876;SDS011;69691;48.172;17.070;2023-07-08T01:14:52;11.18;;;5.50;;
14876;SDS011;69691;48.172;17.070;2023-07-08T01:17:20;7.78;;;4.60;;
14876;SDS011;69691;48.172;17.070;2023-07-08T01:19:47;11.27;;;5.60;;
14876;SDS011;69691;48.172;17.070;2023-07-08T01:22:16;9.95;;;5.32;;
14876;SDS011;69691;48.172;17.070;2023-07-08T01:24:43;8.68;;;5.32;;
14876;SDS011;69691;48.172;17.070;2023-07-08T01:27:11;7.03;;;5.38;;
14876;SDS011;69691;48.172;17.070;2023-07-08T01:29:40;8.07;;;5.10;;
14876;SDS011;69691;48.172;17.070;2023-07-08T01:32:06;6.18;;;5.15;;
14876;SDS011;69691;48.172;17.070;2023-07-08T01:34:43;11.35;;;5.00;;
14876;SDS011;69691;48.172;17.070;2023-07-08T01:37:26;9.48;;;6.03;;
14876;SDS011;69691;48.172;17.070;2023-07-08T01:40:13;6.95;;;5.60;;
14876;SDS011;69691;48.172;17.070;2023-07-08T01:43:00;8.45;;;4.97;;
14876;SDS011;69691;48.172;17.070;2023-07-08T01:45:28;8.90;;;5.70;;
14876;SDS011;69691;48.172;17.070;2023-07-08T01:48:05;11.90;;;5.35;;
14876;SDS011;69691;48.172;17.070;2023-07-08T01:50:37;8.25;;;5.80;;
14876;SDS011;69691;48.172;17.070;2023-07-08T01:53:37;9.38;;;5.82;;
14876;SDS011;69691;48.172;17.070;2023-07-08T01:56:06;10.07;;;5.60;;
14876;SDS011;69691;48.172;17.070;2023-07-08T01:58:33;16.67;;;5.32;;
14876;SDS011;69691;48.172;17.070;2023-07-08T02:01:00;8.68;;;5.82;;
14876;SDS011;69691;48.172;17.070;2023-07-08T02:03:26;8.60;;;5.38;;
14876;SDS011;69691;48.172;17.070;2023-07-08T02:05:54;9.20;;;5.35;;
14876;SDS011;69691;48.172;17.070;2023-07-08T02:08:20;9.23;;;5.68;;
14876;SDS011;69691;48.172;17.070;2023-07-08T02:10:49;8.25;;;5.20;;
14876;SDS011;69691;48.172;17.070;2023-07-08T02:13:20;7.45;;;5.28;;
14876;SDS011;69691;48.172;17.070;2023-07-08T02:15:48;10.38;;;5.72;;
14876;SDS011;69691;48.172;17.070;2023-07-08T02:18:14;8.40;;;5.43;;
14876;SDS011;69691;48.172;17.070;2023-07-08T02:20:42;8.32;;;5.38;;
14876;SDS011;69691;48.172;17.070;2023-07-08T02:23:08;9.00;;;5.45;;
14876;SDS011;69691;48.172;17.070;2023-07-08T02:25:34;7.35;;;5.57;;
14876;SDS011;69691;48.172;17.070;2023-07-08T02:28:00;8.80;;;5.30;;
14876;SDS011;69691;48.172;17.070;2023-07-08T02:30:26;11.45;;;5.60;;
14876;SDS011;69691;48.172;17.070;2023-07-08T02:32:52;15.18;;;6.38;;
14876;SDS011;69691;48.172;17.070;2023-07-08T02:35:26;8.20;;;6.32;;
14876;SDS011;69691;48.172;17.070;2023-07-08T02:37:55;9.43;;;6.15;;
14876;SDS011;69691;48.172;17.070;2023-07-08T02:40:23;9.48;;;6.30;;
14876;SDS011;69691;48.172;17.070;2023-07-08T02:42:50;12.70;;;6.63;;
14876;SDS011;69691;48.172;17.070;2023-07-08T02:45:17;14.25;;;6.97;;
14876;SDS011;69691;48.172;17.070;2023-07-08T02:47:43;9.25;;;6.45;;
14876;SDS011;69691;48.172;17.070;2023-07-08T02:50:09;13.07;;;6.20;;
14876;SDS011;69691;48.172;17.070;2023-07-08T02:52:36;12.82;;;6.30;;
14876;SDS011;69691;48.172;17.070;2023-07-08T02:55:02;12.82;;;6.55;;
14876;SDS011;69691;48.172;17.070;2023-07-08T02:57:29;10.75;;;6.43;;
14876;SDS011;69691;48.172;17.070;2023-07-08T02:59:55;9.35;;;5.93;;
14876;SDS011;69691;48.172;17.070;2023-07-08T03:02:21;12.23;;;6.57;;
14876;SDS011;69691;48.172;17.070;2023-07-08T03:04:48;9.25;;;6.18;;
14876;SDS011;69691;48.172;17.070;2023-07-08T03:07:15;9.38;;;6.57;;
14876;SDS011;69691;48.172;17.070;2023-07-08T03:09:42;11.45;;;6.68;;
14876;SDS011;69691;48.172;17.070;2023-07-08T03:12:09;9.05;;;6.47;;
14876;SDS011;69691;48.172;17.070;2023-07-08T03:14:36;11.82;;;6.30;;
14876;SDS011;69691;48.172;17.070;2023-07-08T03:17:03;7.88;;;6.07;;
14876;SDS011;69691;48.172;17.070;2023-07-08T03:19:29;9.48;;;6.50;;
14876;SDS011;69691;48.172;17.070;2023-07-08T03:21:55;15.25;;;7.00;;
14876;SDS011;69691;48.172;17.070;2023-07-08T03:24:22;14.75;;;6.85;;
14876;SDS011;69691;48.172;17.070;2023-07-08T03:26:48;9.25;;;5.50;;
14876;SDS011;69691;48.172;17.070;2023-07-08T03:29:20;8.80;;;6.72;;
14876;SDS011;69691;48.172;17.070;2023-07-08T03:31:47;8.80;;;6.30;;
14876;SDS011;69691;48.172;17.070;2023-07-08T03:34:14;9.48;;;6.30;;
14876;SDS011;69691;48.172;17.070;2023-07-08T03:36:45;8.57;;;5.65;;
14876;SDS011;69691;48.172;17.070;2023-07-08T03:39:19;13.18;;;6.20;;
14876;SDS011;69691;48.172;17.070;2023-07-08T03:41:50;8.88;;;5.63;;
14876;SDS011;69691;48.172;17.070;2023-07-08T03:44:18;7.35;;;5.72;;
14876;SDS011;69691;48.172;17.070;2023-07-08T03:46:45;12.73;;;6.40;;
14876;SDS011;69691;48.172;17.070;2023-07-08T03:49:16;7.88;;;5.95;;
14876;SDS011;69691;48.172;17.070;2023-07-08T03:51:47;10.07;;;6.20;;
14876;SDS011;69691;48.172;17.070;2023-07-08T03:54:17;9.55;;;5.93;;
14876;SDS011;69691;48.172;17.070;2023-07-08T03:56:44;12.50;;;6.15;;
14876;SDS011;69691;48.172;17.070;2023-07-08T03:59:10;11.20;;;6.28;;
14876;SDS011;69691;48.172;17.070;2023-07-08T04:01:37;12.48;;;6.40;;
14876;SDS011;69691;48.172;17.070;2023-07-08T04:04:08;12.70;;;6.22;;
14876;SDS011;69691;48.172;17.070;2023-07-08T04:06:41;20.10;;;6.28;;
14876;SDS011;69691;48.172;17.070;2023-07-08T04:09:07;11.57;;;6.60;;
14876;SDS011;69691;48.172;17.070;2023-07-08T04:11:32;12.68;;;6.63;;
14876;SDS011;69691;48.172;17.070;2023-07-08T04:13:58;17.38;;;6.82;;
14876;SDS011;69691;48.172;17.070;2023-07-08T04:16:25;13.77;;;6.20;;
14876;SDS011;69691;48.172;17.070;2023-07-08T04:18:55;10.00;;;5.95;;
14876;SDS011;69691;48.172;17.070;2023-07-08T04:21:22;9.20;;;5.82;;
14876;SDS011;69691;48.172;17.070;2023-07-08T04:23:52;10.63;;;6.25;;
14876;SDS011;69691;48.172;17.070;2023-07-08T04:26:18;9.05;;;6.03;;
14876;SDS011;69691;48.172;17.070;2023-07-08T04:28:44;8.18;;;6.00;;
14876;SDS011;69691;48.172;17.070;2023-07-08T04:31:10;19.10;;;6.63;;
14876;SDS011;69691;48.172;17.070;2023-07-08T04:33:36;12.52;;;6.00;;
14876;SDS011;69691;48.172;17.070;2023-07-08T04:36:02;11.77;;;6.45;;
14876;SDS011;69691;48.172;17.070;2023-07-08T04:38:28;13.40;;;5.88;;
14876;SDS011;69691;48.172;17.070;2023-07-08T04:40:54;10.63;;;5.78;;
14876;SDS011;69691;48.172;17.070;2023-07-08T04:43:22;10.82;;;6.32;;
14876;SDS011;69691;48.172;17.070;2023-07-08T04:45:49;10.07;;;6.03;;
14876;SDS011;69691;48.172;17.070;2023-07-08T04:48:17;12.07;;;6.22;;
14876;SDS011;69691;48.172;17.070;2023-07-08T04:50:47;7.72;;;5.13;;
14876;SDS011;69691;48.172;17.070;2023-07-08T04:53:16;10.23;;;5.70;;
14876;SDS011;69691;48.172;17.070;2023-07-08T04:55:43;10.63;;;5.68;;
14876;SDS011;69691;48.172;17.070;2023-07-08T04:58:20;7.82;;;5.53;;
14876;SDS011;69691;48.172;17.070;2023-07-08T05:00:46;12.13;;;5.70;;
14876;SDS011;69691;48.172;17.070;2023-07-08T05:03:12;7.53;;;5.43;;
14876;SDS011;69691;48.172;17.070;2023-07-08T05:05:38;7.55;;;4.93;;
14876;SDS011;69691;48.172;17.070;2023-07-08T05:08:04;14.10;;;5.38;;
14876;SDS011;69691;48.172;17.070;2023-07-08T05:10:31;7.50;;;5.32;;
14876;SDS011;69691;48.172;17.070;2023-07-08T05:12:57;11.20;;;5.65;;
14876;SDS011;69691;48.172;17.070;2023-07-08T05:15:23;12.70;;;6.03;;
14876;SDS011;69691;48.172;17.070;2023-07-08T05:17:49;10.73;;;5.43;;
14876;SDS011;69691;48.172;17.070;2023-07-08T05:20:16;12.95;;;5.30;;
14876;SDS011;69691;48.172;17.070;2023-07-08T05:22:47;11.13;;;6.00;;
14876;SDS011;69691;48.172;17.070;2023-07-08T05:25:13;8.23;;;5.15;;
14876;SDS011;69691;48.172;17.070;2023-07-08T05:27:40;9.15;;;5.93;;
14876;SDS011;69691;48.172;17.070;2023-07-08T05:30:07;9.18;;;5.80;;
14876;SDS011;69691;48.172;17.070;2023-07-08T05:32:38;10.65;;;4.85;;
14876;SDS011;69691;48.172;17.070;2023-07-08T05:35:04;6.55;;;5.32;;
14876;SDS011;69691;48.172;17.070;2023-07-08T05:37:30;12.43;;;5.82;;
14876;SDS011;69691;48.172;17.070;2023-07-08T05:39:56;11.82;;;5.78;;
14876;SDS011;69691;48.172;17.070;2023-07-08T05:42:22;10.07;;;5.63;;
14876;SDS011;69691;48.172;17.070;2023-07-08T05:44:49;12.32;;;5.63;;
14876;SDS011;69691;48.172;17.070;2023-07-08T05:47:17;12.88;;;5.57;;
14876;SDS011;69691;48.172;17.070;2023-07-08T05:49:43;9.30;;;5.93;;
14876;SDS011;69691;48.172;17.070;2023-07-08T05:52:09;7.63;;;5.72;;
14876;SDS011;69691;48.172;17.070;2023-07-08T05:54:37;6.32;;;5.47;;
14876;SDS011;69691;48.172;17.070;2023-07-08T05:57:04;10.77;;;5.65;;
14876;SDS011;69691;48.172;17.070;2023-07-08T05:59:35;8.32;;;5.43;;
14876;SDS011;69691;48.172;17.070;2023-07-08T06:02:04;8.27;;;7.07;;
14876;SDS011;69691;48.172;17.070;2023-07-08T06:04:31;9.65;;;6.60;;
14876;SDS011;69691;48.172;17.070;2023-07-08T06:06:57;15.02;;;6.15;;
14876;SDS011;69691;48.172;17.070;2023-07-08T06:09:23;8.10;;;6.40;;
14876;SDS011;69691;48.172;17.070;2023-07-08T06:11:49;8.60;;;6.55;;
14876;SDS011;69691;48.172;17.070;2023-07-08T06:14:15;10.13;;;6.70;;
14876;SDS011;69691;48.172;17.070;2023-07-08T06:16:41;9.88;;;6.72;;
14876;SDS011;69691;48.172;17.070;2023-07-08T06:19:07;8.13;;;6.43;;
14876;SDS011;69691;48.172;17.070;2023-07-08T06:21:33;15.68;;;6.22;;
14876;SDS011;69691;48.172;17.070;2023-07-08T06:23:59;11.30;;;6.78;;
14876;SDS011;69691;48.172;17.070;2023-07-08T06:26:25;6.82;;;6.13;;
14876;SDS011;69691;48.172;17.070;2023-07-08T06:28:51;12.57;;;6.45;;
14876;SDS011;69691;48.172;17.070;2023-07-08T06:31:17;6.97;;;5.63;;
14876;SDS011;69691;48.172;17.070;2023-07-08T06:33:42;14.32;;;6.13;;
14876;SDS011;69691;48.172;17.070;2023-07-08T06:36:08;8.43;;;6.15;;
14876;SDS011;69691;48.172;17.070;2023-07-08T06:38:34;9.13;;;6.30;;
14876;SDS011;69691;48.172;17.070;2023-07-08T06:41:00;10.35;;;5.65;;
14876;SDS011;69691;48.172;17.070;2023-07-08T06:43:26;6.40;;;5.80;;
14876;SDS011;69691;48.172;17.070;2023-07-08T06:46:03;11.70;;;6.05;;
14876;SDS011;69691;48.172;17.070;2023-07-08T06:48:29;8.25;;;5.43;;
14876;SDS011;69691;48.172;17.070;2023-07-08T06:50:56;12.07;;;5.22;;
14876;SDS011;69691;48.172;17.070;2023-07-08T06:53:23;8.73;;;5.75;;
14876;SDS011;69691;48.172;17.070;2023-07-08T06:55:49;7.93;;;5.32;;
14876;SDS011;69691;48.172;17.070;2023-07-08T06:58:15;13.00;;;5.95;;
14876;SDS011;69691;48.172;17.070;2023-07-08T07:00:44;10.90;;;5.70;;
14876;SDS011;69691;48.172;17.070;2023-07-08T07:03:11;11.52;;;5.07;;
14876;SDS011;69691;48.172;17.070;2023-07-08T07:05:38;13.07;;;6.15;;
14876;SDS011;69691;48.172;17.070;2023-07-08T07:08:04;10.15;;;5.40;;
14876;SDS011;69691;48.172;17.070;2023-07-08T07:10:32;7.07;;;5.47;;
14876;SDS011;69691;48.172;17.070;2023-07-08T07:12:59;11.23;;;6.28;;
14876;SDS011;69691;48.172;17.070;2023-07-08T07:15:25;6.97;;;5.50;;
14876;SDS011;69691;48.172;17.070;2023-07-08T07:17:51;6.78;;;5.53;;
14876;SDS011;69691;48.172;17.070;2023-07-08T07:20:17;7.18;;;5.80;;
14876;SDS011;69691;48.172;17.070;2023-07-08T07:22:43;13.50;;;5.82;;
14876;SDS011;69691;48.172;17.070;2023-07-08T07:25:09;10.57;;;5.32;;
14876;SDS011;69691;48.172;17.070;2023-07-08T07:27:35;11.23;;;6.20;;
14876;SDS011;69691;48.172;17.070;2023-07-08T07:30:00;11.48;;;5.88;;
14876;SDS011;69691;48.172;17.070;2023-07-08T07:32:27;11.60;;;6.10;;
14876;SDS011;69691;48.172;17.070;2023-07-08T07:34:54;9.50;;;6.30;;
14876;SDS011;69691;48.172;17.070;2023-07-08T07:37:22;13.77;;;6.43;;
14876;SDS011;69691;48.172;17.070;2023-07-08T07:39:48;9.90;;;6.28;;
14876;SDS011;69691;48.172;17.070;2023-07-08T07:42:14;9.65;;;5.75;;
14876;SDS011;69691;48.172;17.070;2023-07-08T07:44:44;7.55;;;6.13;;
14876;SDS011;69691;48.172;17.070;2023-07-08T07:47:10;12.93;;;6.55;;
14876;SDS011;69691;48.172;17.070;2023-07-08T07:49:37;20.42;;;6.88;;
14876;SDS011;69691;48.172;17.070;2023-07-08T07:52:03;9.50;;;6.72;;
14876;SDS011;69691;48.172;17.070;2023-07-08T07:54:30;12.50;;;6.35;;
14876;SDS011;69691;48.172;17.070;2023-07-08T07:56:56;7.38;;;6.00;;
14876;SDS011;69691;48.172;17.070;2023-07-08T07:59:22;9.95;;;5.85;;
14876;SDS011;69691;48.172;17.070;2023-07-08T08:01:48;9.95;;;6.57;;
14876;SDS011;69691;48.172;17.070;2023-07-08T08:04:14;8.50;;;5.82;;
14876;SDS011;69691;48.172;17.070;2023-07-08T08:06:39;9.88;;;6.35;;
14876;SDS011;69691;48.172;17.070;2023-07-08T08:09:06;11.98;;;6.47;;
14876;SDS011;69691;48.172;17.070;2023-07-08T08:11:32;11.20;;;6.43;;
14876;SDS011;69691;48.172;17.070;2023-07-08T08:13:59;12.93;;;6.28;;
14876;SDS011;69691;48.172;17.070;2023-07-08T08:16:25;10.02;;;6.35;;
14876;SDS011;69691;48.172;17.070;2023-07-08T08:18:51;10.70;;;6.40;;
14876;SDS011;69691;48.172;17.070;2023-07-08T08:21:17;13.27;;;6.47;;
14876;SDS011;69691;48.172;17.070;2023-07-08T08:23:43;11.30;;;6.35;;
14876;SDS011;69691;48.172;17.070;2023-07-08T08:26:09;6.38;;;5.22;;
14876;SDS011;69691;48.172;17.070;2023-07-08T08:28:34;16.50;;;6.63;;
14876;SDS011;69691;48.172;17.070;2023-07-08T08:31:00;11.50;;;6.03;;
14876;SDS011;69691;48.172;17.070;2023-07-08T08:33:26;8.65;;;5.93;;
14876;SDS011;69691;48.172;17.070;2023-07-08T08:35:52;9.15;;;6.18;;
14876;SDS011;69691;48.172;17.070;2023-07-08T08:38:18;8.93;;;6.00;;
14876;SDS011;69691;48.172;17.070;2023-07-08T08:40:43;9.07;;;5.70;;
14876;SDS011;69691;48.172;17.070;2023-07-08T08:43:12;8.75;;;5.78;;
14876;SDS011;69691;48.172;17.070;2023-07-08T08:49:32;12.68;;;5.68;;
14876;SDS011;69691;48.172;17.070;2023-07-08T08:51:46;11.95;;;6.05;;
14876;SDS011;69691;48.172;17.070;2023-07-08T08:54:13;9.20;;;5.88;;
14876;SDS011;69691;48.172;17.070;2023-07-08T08:56:43;11.30;;;6.05;;
14876;SDS011;69691;48.172;17.070;2023-07-08T08:59:54;12.40;;;6.38;;
14876;SDS011;69691;48.172;17.070;2023-07-08T09:05:05;11.88;;;6.22;;
14876;SDS011;69691;48.172;17.070;2023-07-08T09:07:43;13.90;;;5.65;;
14876;SDS011;69691;48.172;17.070;2023-07-08T09:10:48;10.98;;;6.47;;
14876;SDS011;69691;48.172;17.070;2023-07-08T09:13:38;11.23;;;5.95;;
14876;SDS011;69691;48.172;17.070;2023-07-08T09:16:12;12.57;;;6.38;;
14876;SDS011;69691;48.172;17.070;2023-07-08T09:18:59;10.10;;;6.68;;
14876;SDS011;69691;48.172;17.070;2023-07-08T09:21:34;10.65;;;6.75;;
14876;SDS011;69691;48.172;17.070;2023-07-08T09:24:25;10.68;;;6.50;;
14876;SDS011;69691;48.172;17.070;2023-07-08T09:27:04;14.23;;;7.63;;
14876;SDS011;69691;48.172;17.070;2023-07-08T09:29:30;7.47;;;5.60;;
14876;SDS011;69691;48.172;17.070;2023-07-08T09:31:58;8.57;;;5.93;;
14876;SDS011;69691;48.172;17.070;2023-07-08T09:34:37;9.52;;;6.80;;
14876;SDS011;69691;48.172;17.070;2023-07-08T09:37:20;14.82;;;6.03;;
14876;SDS011;69691;48.172;17.070;2023-07-08T09:40:50;8.55;;;6.30;;
14876;SDS011;69691;48.172;17.070;2023-07-08T09:46:01;10.60;;;6.20;;
14876;SDS011;69691;48.172;17.070;2023-07-08T09:48:29;9.15;;;6.15;;
14876;SDS011;69691;48.172;17.070;2023-07-08T09:51:02;11.98;;;6.30;;
14876;SDS011;69691;48.172;17.070;2023-07-08T09:53:29;10.70;;;6.03;;
14876;SDS011;69691;48.172;17.070;2023-07-08T09:55:56;10.57;;;6.07;;
14876;SDS011;69691;48.172;17.070;2023-07-08T09:58:29;12.55;;;6.82;;
14876;SDS011;69691;48.172;17.070;2023-07-08T10:01:08;7.75;;;5.38;;
14876;SDS011;69691;48.172;17.070;2023-07-08T10:03:38;7.22;;;5.15;;
14876;SDS011;69691;48.172;17.070;2023-07-08T10:06:08;6.57;;;5.43;;
14876;SDS011;69691;48.172;17.070;2023-07-08T10:08:43;7.40;;;5.40;;
14876;SDS011;69691;48.172;17.070;2023-07-08T10:13:42;8.40;;;5.55;;
14876;SDS011;69691;48.172;17.070;2023-07-08T10:16:14;14.98;;;5.90;;
14876;SDS011;69691;48.172;17.070;2023-07-08T10:18:51;19.00;;;5.45;;
14876;SDS011;69691;48.172;17.070;2023-07-08T10:21:23;6.65;;;5.45;;
14876;SDS011;69691;48.172;17.070;2023-07-08T10:26:41;11.18;;;5.28;;
14876;SDS011;69691;48.172;17.070;2023-07-08T10:29:15;8.00;;;4.40;;
14876;SDS011;69691;48.172;17.070;2023-07-08T10:35:18;11.73;;;4.80;;
14876;SDS011;69691;48.172;17.070;2023-07-08T10:38:02;7.38;;;5.47;;
14876;SDS011;69691;48.172;17.070;2023-07-08T10:40:55;10.25;;;5.00;;
14876;SDS011;69691;48.172;17.070;2023-07-08T10:43:31;5.53;;;5.03;;
14876;SDS011;69691;48.172;17.070;2023-07-08T10:46:26;9.00;;;4.90;;
14876;SDS011;69691;48.172;17.070;2023-07-08T10:49:27;6.20;;;4.97;;
14876;SDS011;69691;48.172;17.070;2023-07-08T11:00:41;9.88;;;4.97;;
14876;SDS011;69691;48.172;17.070;2023-07-08T11:07:04;6.65;;;4.90;;
14876;SDS011;69691;48.172;17.070;2023-07-08T11:09:46;9.43;;;4.93;;
14876;SDS011;69691;48.172;17.070;2023-07-08T11:12:40;7.10;;;5.40;;
14876;SDS011;69691;48.172;17.070;2023-07-08T11:15:23;7.00;;;4.55;;
14876;SDS011;69691;48.172;17.070;2023-07-08T11:18:01;5.88;;;4.43;;
14876;SDS011;69691;48.172;17.070;2023-07-08T11:23:36;8.90;;;5.60;;
14876;SDS011;69691;48.172;17.070;2023-07-08T11:26:17;5.38;;;4.63;;
14876;SDS011;69691;48.172;17.070;2023-07-08T11:29:10;9.32;;;5.15;;
14876;SDS011;69691;48.172;17.070;2023-07-08T11:31:43;5.30;;;4.70;;
14876;SDS011;69691;48.172;17.070;2023-07-08T11:34:11;8.00;;;4.68;;
14876;SDS011;69691;48.172;17.070;2023-07-08T11:36:39;6.82;;;4.72;;
14876;SDS011;69691;48.172;17.070;2023-07-08T11:39:05;7.25;;;4.60;;
14876;SDS011;69691;48.172;17.070;2023-07-08T11:42:11;6.10;;;4.40;;
14876;SDS011;69691;48.172;17.070;2023-07-08T11:44:43;7.32;;;4.82;;
14876;SDS011;69691;48.172;17.070;2023-07-08T11:47:46;9.32;;;5.47;;
14876;SDS011;69691;48.172;17.070;2023-07-08T11:50:25;7.82;;;5.25;;
14876;SDS011;69691;48.172;17.070;2023-07-08T11:53:00;5.45;;;4.68;;
14876;SDS011;69691;48.172;17.070;2023-07-08T11:55:38;7.93;;;4.85;;
14876;SDS011;69691;48.172;17.070;2023-07-08T11:58:25;7.15;;;5.65;;
14876;SDS011;69691;48.172;17.070;2023-07-08T12:03:49;8.32;;;4.75;;
14876;SDS011;69691;48.172;17.070;2023-07-08T12:08:55;8.77;;;4.83;;
14876;SDS011;69691;48.172;17.070;2023-07-08T12:11:27;6.18;;;5.15;;
14876;SDS011;69691;48.172;17.070;2023-07-08T12:13:59;12.00;;;5.57;;
14876;SDS011;69691;48.172;17.070;2023-07-08T12:16:28;8.68;;;4.90;;
14876;SDS011;69691;48.172;17.070;2023-07-08T12:18:57;7.53;;;4.85;;
14876;SDS011;69691;48.172;17.070;2023-07-08T12:21:25;7.95;;;4.93;;
14876;SDS011;69691;48.172;17.070;2023-07-08T12:23:53;7.38;;;4.85;;
14876;SDS011;69691;48.172;17.070;2023-07-08T12:26:19;7.10;;;5.38;;
14876;SDS011;69691;48.172;17.070;2023-07-08T12:28:47;10.00;;;5.00;;
14876;SDS011;69691;48.172;17.070;2023-07-08T12:31:13;8.80;;;4.88;;
14876;SDS011;69691;48.172;17.070;2023-07-08T12:33:45;8.75;;;5.10;;
14876;SDS011;69691;48.172;17.070;2023-07-08T12:36:15;6.88;;;5.18;;
14876;SDS011;69691;48.172;17.070;2023-07-08T12:38:52;11.68;;;5.03;;
14876;SDS011;69691;48.172;17.070;2023-07-08T12:41:22;6.15;;;5.20;;
14876;SDS011;69691;48.172;17.070;2023-07-08T12:43:55;12.85;;;5.57;;
14876;SDS011;69691;48.172;17.070;2023-07-08T12:46:22;6.03;;;5.35;;
14876;SDS011;69691;48.172;17.070;2023-07-08T12:48:50;7.63;;;5.32;;
14876;SDS011;69691;48.172;17.070;2023-07-08T12:51:17;15.27;;;4.50;;
14876;SDS011;69691;48.172;17.070;2023-07-08T12:53:49;12.43;;;5.22;;
14876;SDS011;69691;48.172;17.070;2023-07-08T12:56:17;5.22;;;4.43;;
14876;SDS011;69691;48.172;17.070;2023-07-08T12:58:46;6.00;;;5.10;;
14876;SDS011;69691;48.172;17.070;2023-07-08T13:01:21;10.18;;;5.32;;
14876;SDS011;69691;48.172;17.070;2023-07-08T13:03:58;6.00;;;5.00;;
14876;SDS011;69691;48.172;17.070;2023-07-08T13:06:29;9.75;;;4.78;;
14876;SDS011;69691;48.172;17.070;2023-07-08T13:09:00;5.95;;;4.43;;
14876;SDS011;69691;48.172;17.070;2023-07-08T13:11:38;6.07;;;4.60;;
14876;SDS011;69691;48.172;17.070;2023-07-08T13:14:07;6.07;;;4.97;;
14876;SDS011;69691;48.172;17.070;2023-07-08T13:16:34;10.18;;;4.90;;
14876;SDS011;69691;48.172;17.070;2023-07-08T13:19:01;8.35;;;5.10;;
14876;SDS011;69691;48.172;17.070;2023-07-08T13:21:27;7.45;;;5.13;;
14876;SDS011;69691;48.172;17.070;2023-07-08T13:23:55;9.63;;;4.65;;
14876;SDS011;69691;48.172;17.070;2023-07-08T13:26:23;7.18;;;4.53;;
14876;SDS011;69691;48.172;17.070;2023-07-08T13:28:59;5.28;;;4.60;;
14876;SDS011;69691;48.172;17.070;2023-07-08T13:31:32;9.45;;;4.57;;
14876;SDS011;69691;48.172;17.070;2023-07-08T13:34:05;8.15;;;4.50;;
14876;SDS011;69691;48.172;17.070;2023-07-08T13:36:43;8.23;;;4.97;;
14876;SDS011;69691;48.172;17.070;2023-07-08T13:39:27;4.95;;;4.47;;
14876;SDS011;69691;48.172;17.070;2023-07-08T13:41:58;7.28;;;5.13;;
14876;SDS011;69691;48.172;17.070;2023-07-08T13:44:25;8.55;;;4.85;;
14876;SDS011;69691;48.172;17.070;2023-07-08T13:46:53;6.93;;;5.00;;
14876;SDS011;69691;48.172;17.070;2023-07-08T13:49:27;6.15;;;4.78;;
14876;SDS011;69691;48.172;17.070;2023-07-08T13:54:41;7.15;;;4.72;;
14876;SDS011;69691;48.172;17.070;2023-07-08T13:57:18;8.68;;;4.63;;
14876;SDS011;69691;48.172;17.070;2023-07-08T13:59:47;7.95;;;4.75;;
14876;SDS011;69691;48.172;17.070;2023-07-08T14:02:15;12.20;;;5.00;;
14876;SDS011;69691;48.172;17.070;2023-07-08T14:04:50;7.20;;;4.53;;
14876;SDS011;69691;48.172;17.070;2023-07-08T14:07:22;11.30;;;4.43;;
14876;SDS011;69691;48.172;17.070;2023-07-08T14:09:54;6.60;;;4.57;;
14876;SDS011;69691;48.172;17.070;2023-07-08T14:12:21;6.63;;;4.70;;
14876;SDS011;69691;48.172;17.070;2023-07-08T14:14:47;9.10;;;4.60;;
14876;SDS011;69691;48.172;17.070;2023-07-08T14:17:14;6.10;;;4.45;;
14876;SDS011;69691;48.172;17.070;2023-07-08T14:19:46;9.93;;;5.50;;
14876;SDS011;69691;48.172;17.070;2023-07-08T14:24:41;6.43;;;4.75;;
14876;SDS011;69691;48.172;17.070;2023-07-08T14:27:08;5.90;;;4.70;;
14876;SDS011;69691;48.172;17.070;2023-07-08T14:29:39;8.75;;;4.18;;
14876;SDS011;69691;48.172;17.070;2023-07-08T14:32:19;6.45;;;5.03;;
14876;SDS011;69691;48.172;17.070;2023-07-08T14:34:52;9.38;;;5.15;;
14876;SDS011;69691;48.172;17.070;2023-07-08T14:37:22;4.97;;;4.40;;
14876;SDS011;69691;48.172;17.070;2023-07-08T14:39:48;8.02;;;4.68;;
14876;SDS011;69691;48.172;17.070;2023-07-08T14:42:15;9.60;;;4.88;;
14876;SDS011;69691;48.172;17.070;2023-07-08T14:44:47;7.78;;;4.70;;
14876;SDS011;69691;48.172;17.070;2023-07-08T14:47:16;7.55;;;4.30;;
14876;SDS011;69691;48.172;17.070;2023-07-08T14:49:43;7.25;;;4.38;;
14876;SDS011;69691;48.172;17.070;2023-07-08T14:52:09;9.32;;;5.00;;
14876;SDS011;69691;48.172;17.070;2023-07-08T14:54:36;15.60;;;4.88;;
14876;SDS011;69691;48.172;17.070;2023-07-08T14:57:02;5.43;;;4.50;;
14876;SDS011;69691;48.172;17.070;2023-07-08T14:59:31;5.57;;;4.70;;
14876;SDS011;69691;48.172;17.070;2023-07-08T15:01:59;5.85;;;4.55;;
14876;SDS011;69691;48.172;17.070;2023-07-08T15:04:33;8.73;;;4.93;;
14876;SDS011;69691;48.172;17.070;2023-07-08T15:06:59;8.60;;;4.78;;
14876;SDS011;69691;48.172;17.070;2023-07-08T15:09:25;5.53;;;4.88;;
14876;SDS011;69691;48.172;17.070;2023-07-08T15:11:51;6.05;;;4.22;;
14876;SDS011;69691;48.172;17.070;2023-07-08T15:14:18;5.55;;;4.50;;
14876;SDS011;69691;48.172;17.070;2023-07-08T15:16:50;8.48;;;4.88;;
14876;SDS011;69691;48.172;17.070;2023-07-08T15:19:17;6.05;;;5.07;;
14876;SDS011;69691;48.172;17.070;2023-07-08T15:21:44;9.75;;;4.97;;
14876;SDS011;69691;48.172;17.070;2023-07-08T15:24:11;7.50;;;4.53;;
14876;SDS011;69691;48.172;17.070;2023-07-08T15:26:39;10.07;;;4.43;;
14876;SDS011;69691;48.172;17.070;2023-07-08T15:29:16;5.85;;;4.68;;
14876;SDS011;69691;48.172;17.070;2023-07-08T15:31:47;6.78;;;4.78;;
14876;SDS011;69691;48.172;17.070;2023-07-08T15:34:17;8.52;;;4.90;;
14876;SDS011;69691;48.172;17.070;2023-07-08T15:36:45;8.05;;;4.70;;
14876;SDS011;69691;48.172;17.070;2023-07-08T15:39:12;5.50;;;4.72;;